Time;durP1;ratioP1;P1;durP2;ratioP2;P2;SDS_P1;SDS_P2;PMS_P1;PMS_P2;Temp;Humidity;BMP_temperature;BMP_pressure;BME280_temperature;BME280_humidity;BME280_pressure;Samples;Min_cycle;Max_cycle;Signal;HPM_P1;HPM_P2
2021/12/27 00:01:06;;;;;;;26.15;14.30;;;;;;;;;;4874352;29;20029;-85
2021/12/27 00:03:32;;;;;;;23.92;12.98;;;;;;;;;;4875560;29;20072;-84
2021/12/27 00:05:57;;;;;;;25.20;13.45;;;;;;;;;;4873461;29;20076;-83
2021/12/27 00:08:23;;;;;;;29.73;15.40;;;;;;;;;;4870472;29;20552;-89
2021/12/27 00:10:49;;;;;;;24.27;13.93;;;;;;;;;;4861164;29;20040;-89
2021/12/27 00:13:15;;;;;;;25.13;14.90;;;;;;;;;;4861362;29;20029;-88
2021/12/27 00:15:42;;;;;;;25.63;14.82;;;;;;;;;;4864458;29;20073;-89
2021/12/27 00:18:07;;;;;;;29.55;15.52;;;;;;;;;;4875235;29;20068;-84
2021/12/27 00:20:33;;;;;;;28.30;15.50;;;;;;;;;;4856372;29;20086;-84
2021/12/27 00:22:58;;;;;;;25.38;14.50;;;;;;;;;;4860643;29;20057;-87
2021/12/27 00:25:23;;;;;;;25.98;14.80;;;;;;;;;;4867870;29;20065;-85
2021/12/27 00:27:49;;;;;;;33.53;15.48;;;;;;;;;;4871399;29;20037;-84
2021/12/27 00:30:20;;;;;;;30.42;15.82;;;;;;;;;;4859281;29;20112;-83
2021/12/27 00:32:46;;;;;;;27.88;15.05;;;;;;;;;;4860922;29;20037;-83
2021/12/27 00:35:13;;;;;;;29.55;16.33;;;;;;;;;;4861983;29;20045;-89
2021/12/27 00:37:39;;;;;;;25.23;14.57;;;;;;;;;;4866649;29;20032;-84
2021/12/27 00:40:05;;;;;;;26.35;14.70;;;;;;;;;;4857966;29;20036;-90
2021/12/27 00:42:30;;;;;;;26.95;14.95;;;;;;;;;;4864579;29;20032;-89
2021/12/27 00:44:56;;;;;;;30.13;15.75;;;;;;;;;;4867083;29;20036;-87
2021/12/27 00:47:21;;;;;;;27.98;15.13;;;;;;;;;;4862901;29;20028;-85
2021/12/27 00:49:47;;;;;;;29.50;16.17;;;;;;;;;;4868085;29;20052;-83
2021/12/27 00:52:12;;;;;;;27.90;15.35;;;;;;;;;;4866280;29;20037;-89
2021/12/27 00:54:38;;;;;;;32.22;16.42;;;;;;;;;;4861345;29;20084;-83
2021/12/27 00:57:03;;;;;;;29.85;16.08;;;;;;;;;;4866908;29;20029;-86
2021/12/27 00:59:29;;;;;;;26.83;15.30;;;;;;;;;;4863291;29;20029;-85
2021/12/27 01:01:54;;;;;;;27.10;15.32;;;;;;;;;;4863939;29;20033;-88
2021/12/27 01:04:19;;;;;;;28.13;15.32;;;;;;;;;;4863421;29;20029;-83
2021/12/27 01:06:45;;;;;;;26.30;14.98;;;;;;;;;;4874996;29;20059;-84
2021/12/27 01:09:18;;;;;;;26.17;14.52;;;;;;;;;;4859543;29;20029;-84
2021/12/27 01:14:40;;;;;;;25.42;13.73;;;;;;;;;;4878855;29;19926;-85
2021/12/27 01:17:06;;;;;;;25.73;14.77;;;;;;;;;;4866355;29;20044;-89
2021/12/27 01:19:32;;;;;;;26.38;15.07;;;;;;;;;;4858823;29;20025;-89
2021/12/27 01:21:57;;;;;;;28.00;17.42;;;;;;;;;;4863878;29;20165;-89
2021/12/27 01:24:22;;;;;;;25.00;14.88;;;;;;;;;;4870602;29;20036;-83
2021/12/27 01:26:48;;;;;;;21.92;12.82;;;;;;;;;;4863985;29;20029;-84
2021/12/27 01:29:13;;;;;;;22.70;13.70;;;;;;;;;;4864047;29;20034;-88
2021/12/27 01:31:39;;;;;;;22.75;13.90;;;;;;;;;;4863276;29;20112;-84
2021/12/27 01:34:09;;;;;;;25.23;14.38;;;;;;;;;;4863388;29;20033;-89
2021/12/27 01:36:35;;;;;;;22.88;13.15;;;;;;;;;;4868499;29;20452;-83
2021/12/27 01:39:02;;;;;;;23.75;13.55;;;;;;;;;;4876109;29;20070;-84
2021/12/27 01:41:28;;;;;;;22.30;13.52;;;;;;;;;;4864515;29;20063;-88
2021/12/27 01:43:57;;;;;;;24.02;13.32;;;;;;;;;;4861919;29;20052;-91
2021/12/27 01:46:24;;;;;;;24.60;13.73;;;;;;;;;;4864114;29;20052;-87
2021/12/27 01:48:55;;;;;;;21.63;12.93;;;;;;;;;;4865506;29;20048;-90
2021/12/27 01:51:24;;;;;;;23.77;12.60;;;;;;;;;;4869390;29;20081;-90
2021/12/27 01:53:49;;;;;;;24.05;12.98;;;;;;;;;;4863678;29;20033;-88
2021/12/27 01:56:20;;;;;;;20.20;12.82;;;;;;;;;;4864513;29;20116;-84
2021/12/27 01:58:46;;;;;;;22.52;11.98;;;;;;;;;;4865326;29;20033;-88
2021/12/27 02:01:14;;;;;;;24.55;12.98;;;;;;;;;;4867535;29;20060;-84
2021/12/27 02:03:41;;;;;;;20.75;12.95;;;;;;;;;;4862434;29;20097;-84
2021/12/27 02:06:09;;;;;;;24.17;13.73;;;;;;;;;;4865399;29;20105;-84
2021/12/27 02:08:36;;;;;;;21.48;13.25;;;;;;;;;;4879285;29;20044;-90
2021/12/27 02:11:03;;;;;;;22.88;12.98;;;;;;;;;;4877756;29;20382;-88
2021/12/27 02:13:29;;;;;;;20.48;12.27;;;;;;;;;;4877667;29;20044;-89
2021/12/27 02:15:54;;;;;;;22.58;13.27;;;;;;;;;;4879198;29;20029;-89
2021/12/27 02:18:20;;;;;;;20.25;12.27;;;;;;;;;;4875210;29;20044;-89
2021/12/27 02:20:45;;;;;;;21.80;13.05;;;;;;;;;;4878376;29;20125;-85
2021/12/27 02:23:17;;;;;;;21.58;13.02;;;;;;;;;;4879144;29;20040;-88
2021/12/27 02:25:48;;;;;;;23.17;13.05;;;;;;;;;;4880646;29;20036;-89
2021/12/27 02:28:14;;;;;;;23.33;12.57;;;;;;;;;;4877854;29;20033;-89
2021/12/27 02:30:42;;;;;;;23.17;13.25;;;;;;;;;;4875545;29;20044;-88
2021/12/27 02:33:08;;;;;;;25.05;13.20;;;;;;;;;;4877645;29;20131;-83
2021/12/27 02:35:40;;;;;;;25.90;13.43;;;;;;;;;;4876439;29;20493;-84
2021/12/27 02:38:13;;;;;;;22.15;12.40;;;;;;;;;;4876751;29;20048;-89
2021/12/27 02:40:40;;;;;;;24.17;13.38;;;;;;;;;;4878754;29;20052;-91
2021/12/27 02:43:08;;;;;;;22.88;13.15;;;;;;;;;;4878006;29;20078;-89
2021/12/27 02:45:36;;;;;;;25.55;13.50;;;;;;;;;;4881640;29;20029;-84
2021/12/27 02:48:03;;;;;;;21.98;12.77;;;;;;;;;;4877808;29;20037;-84
2021/12/27 02:50:30;;;;;;;24.13;12.63;;;;;;;;;;4876646;29;20029;-84
2021/12/27 02:52:55;;;;;;;23.15;12.50;;;;;;;;;;4873723;29;20040;-87
2021/12/27 02:55:21;;;;;;;26.60;13.20;;;;;;;;;;4876351;29;20049;-85
2021/12/27 02:57:48;;;;;;;22.55;12.85;;;;;;;;;;4876433;29;20033;-84
2021/12/27 03:00:16;;;;;;;26.30;13.93;;;;;;;;;;4871183;29;20037;-88
2021/12/27 03:02:43;;;;;;;23.60;13.10;;;;;;;;;;4878533;29;20036;-85
2021/12/27 03:05:09;;;;;;;24.27;14.05;;;;;;;;;;4877799;29;20021;-90
2021/12/27 03:07:35;;;;;;;21.88;12.55;;;;;;;;;;4881165;29;20101;-89
2021/12/27 03:10:01;;;;;;;25.17;13.27;;;;;;;;;;4874442;29;20029;-83
2021/12/27 03:12:26;;;;;;;26.08;13.85;;;;;;;;;;4865985;29;20033;-89
2021/12/27 03:14:52;;;;;;;24.92;13.52;;;;;;;;;;4860713;29;20025;-88
2021/12/27 03:17:17;;;;;;;24.50;12.95;;;;;;;;;;4870052;29;20025;-84
2021/12/27 03:19:42;;;;;;;23.60;13.40;;;;;;;;;;4866731;29;20500;-88
2021/12/27 03:22:08;;;;;;;24.30;13.77;;;;;;;;;;4866729;29;20469;-83
2021/12/27 03:24:33;;;;;;;24.10;12.75;;;;;;;;;;4860672;29;20472;-89
2021/12/27 03:26:58;;;;;;;22.38;12.32;;;;;;;;;;4875444;29;20017;-90
2021/12/27 03:29:24;;;;;;;22.48;12.63;;;;;;;;;;4864844;29;20036;-87
2021/12/27 03:31:54;;;;;;;22.45;13.23;;;;;;;;;;4864673;29;20029;-90
2021/12/27 03:34:22;;;;;;;23.17;12.63;;;;;;;;;;4864454;29;20398;-85
2021/12/27 03:36:48;;;;;;;22.23;12.90;;;;;;;;;;4863458;29;20024;-89
2021/12/27 03:39:14;;;;;;;21.33;12.02;;;;;;;;;;4861538;29;20128;-87
2021/12/27 03:41:40;;;;;;;23.17;13.05;;;;;;;;;;4866027;29;20032;-85
2021/12/27 03:44:06;;;;;;;22.42;12.68;;;;;;;;;;4875342;29;20052;-89
2021/12/27 03:46:34;;;;;;;23.45;12.63;;;;;;;;;;4858750;29;20079;-89
2021/12/27 03:48:59;;;;;;;22.00;12.77;;;;;;;;;;4866878;29;20029;-87
2021/12/27 03:51:27;;;;;;;22.20;12.65;;;;;;;;;;4867404;29;20547;-91
2021/12/27 03:53:53;;;;;;;22.90;13.35;;;;;;;;;;4861664;29;20037;-90
2021/12/27 03:56:23;;;;;;;24.35;12.52;;;;;;;;;;4865605;29;20025;-90
2021/12/27 03:59:18;;;;;;;24.60;13.20;;;;;;;;;;4861207;29;20111;-90
2021/12/27 04:01:43;;;;;;;23.83;13.18;;;;;;;;;;4876400;29;20041;-89
2021/12/27 04:04:09;;;;;;;22.00;12.13;;;;;;;;;;4864088;29;20028;-85
2021/12/27 04:06:34;;;;;;;21.85;11.88;;;;;;;;;;4866349;29;20659;-86
2021/12/27 04:09:00;;;;;;;20.80;12.50;;;;;;;;;;4876988;29;20033;-85
2021/12/27 04:11:26;;;;;;;24.30;13.48;;;;;;;;;;4865508;29;20032;-86
2021/12/27 04:13:51;;;;;;;24.05;13.20;;;;;;;;;;4863666;29;20024;-90
2021/12/27 04:16:17;;;;;;;22.70;13.98;;;;;;;;;;4870846;29;20025;-90
2021/12/27 04:18:42;;;;;;;24.15;14.02;;;;;;;;;;4865699;29;20040;-91
2021/12/27 04:21:08;;;;;;;21.13;12.65;;;;;;;;;;4867771;29;20063;-86
2021/12/27 04:23:33;;;;;;;23.00;12.82;;;;;;;;;;4869312;29;20040;-85
2021/12/27 04:25:59;;;;;;;23.95;13.45;;;;;;;;;;4884236;29;20037;-85
2021/12/27 04:28:24;;;;;;;21.75;12.82;;;;;;;;;;4863235;29;20386;-90
2021/12/27 04:30:50;;;;;;;27.17;14.00;;;;;;;;;;4863567;29;20119;-85
2021/12/27 04:33:15;;;;;;;25.50;12.75;;;;;;;;;;4859155;29;20123;-84
2021/12/27 04:35:41;;;;;;;22.63;12.93;;;;;;;;;;4875675;29;20036;-84
2021/12/27 04:38:07;;;;;;;23.27;13.32;;;;;;;;;;4860859;29;20039;-85
2021/12/27 04:40:36;;;;;;;21.63;12.88;;;;;;;;;;4861668;29;20040;-89
2021/12/27 04:43:14;;;;;;;22.25;13.73;;;;;;;;;;4857104;29;20056;-89
2021/12/27 04:45:40;;;;;;;24.48;13.10;;;;;;;;;;4864351;29;20033;-88
2021/12/27 04:48:07;;;;;;;22.77;12.60;;;;;;;;;;4863380;29;20124;-90
2021/12/27 04:50:33;;;;;;;22.98;13.18;;;;;;;;;;4857532;29;20084;-85
2021/12/27 04:52:59;;;;;;;25.00;13.25;;;;;;;;;;4859352;29;20028;-86
2021/12/27 04:55:26;;;;;;;25.90;12.77;;;;;;;;;;4861277;29;20149;-91
2021/12/27 04:57:52;;;;;;;26.23;13.32;;;;;;;;;;4861592;29;20060;-85
2021/12/27 05:00:18;;;;;;;25.05;14.27;;;;;;;;;;4857571;29;20039;-89
2021/12/27 05:02:43;;;;;;;24.42;12.88;;;;;;;;;;4858323;29;20037;-90
2021/12/27 05:05:09;;;;;;;25.50;13.27;;;;;;;;;;4856622;29;20520;-84
2021/12/27 05:07:34;;;;;;;26.60;14.15;;;;;;;;;;4872831;29;20109;-85
2021/12/27 05:10:00;;;;;;;26.17;13.60;;;;;;;;;;4875839;29;20025;-91
2021/12/27 05:12:26;;;;;;;21.83;12.98;;;;;;;;;;4867123;29;20033;-85
2021/12/27 05:14:52;;;;;;;23.92;13.02;;;;;;;;;;4861212;29;20043;-90
2021/12/27 05:17:17;;;;;;;25.35;13.90;;;;;;;;;;4864822;29;20041;-86
2021/12/27 05:19:42;;;;;;;30.33;13.73;;;;;;;;;;4870318;29;20116;-90
2021/12/27 05:22:08;;;;;;;25.20;13.43;;;;;;;;;;4863187;29;20037;-91
2021/12/27 05:24:33;;;;;;;26.13;13.85;;;;;;;;;;4864974;29;20493;-84
2021/12/27 05:26:59;;;;;;;22.33;11.98;;;;;;;;;;4868894;29;20120;-91
2021/12/27 05:29:24;;;;;;;24.50;13.02;;;;;;;;;;4868318;29;20119;-84
2021/12/27 05:31:51;;;;;;;25.42;14.00;;;;;;;;;;4871700;29;20025;-84
2021/12/27 05:34:17;;;;;;;24.38;13.13;;;;;;;;;;4867448;29;20033;-89
2021/12/27 05:36:43;;;;;;;27.73;13.68;;;;;;;;;;4876550;29;20442;-90
2021/12/27 05:39:10;;;;;;;23.83;12.70;;;;;;;;;;4867843;29;20029;-89
2021/12/27 05:41:36;;;;;;;25.13;13.18;;;;;;;;;;4877239;29;20029;-85
2021/12/27 05:44:01;;;;;;;24.83;14.02;;;;;;;;;;4888792;29;20036;-84
2021/12/27 05:46:26;;;;;;;23.80;13.15;;;;;;;;;;4866911;29;20032;-90
2021/12/27 05:48:52;;;;;;;29.65;13.38;;;;;;;;;;4868962;29;20107;-85
2021/12/27 05:51:17;;;;;;;25.90;13.35;;;;;;;;;;4875833;29;20045;-91
2021/12/27 05:53:43;;;;;;;28.80;13.63;;;;;;;;;;4867390;29;20072;-85
2021/12/27 05:56:08;;;;;;;26.92;12.90;;;;;;;;;;4880779;29;20062;-88
2021/12/27 05:58:34;;;;;;;26.00;13.75;;;;;;;;;;4866824;29;20037;-90
2021/12/27 06:00:59;;;;;;;26.70;13.27;;;;;;;;;;4867556;29;20029;-90
2021/12/27 06:03:25;;;;;;;24.65;13.48;;;;;;;;;;4872433;29;20112;-89
2021/12/27 06:05:50;;;;;;;23.35;13.48;;;;;;;;;;4872809;29;20844;-86
2021/12/27 06:08:15;;;;;;;25.10;13.10;;;;;;;;;;4888608;29;20136;-88
2021/12/27 06:10:41;;;;;;;27.65;13.75;;;;;;;;;;4888339;29;20033;-91
2021/12/27 06:13:06;;;;;;;22.75;12.55;;;;;;;;;;4887807;29;20025;-90
2021/12/27 06:15:32;;;;;;;24.50;12.70;;;;;;;;;;4883133;29;20134;-90
2021/12/27 06:17:57;;;;;;;22.50;13.23;;;;;;;;;;4890854;29;20499;-90
2021/12/27 06:20:23;;;;;;;21.15;12.32;;;;;;;;;;4886334;29;20025;-91
2021/12/27 06:22:52;;;;;;;21.83;12.05;;;;;;;;;;4890258;29;20025;-88
2021/12/27 06:25:18;;;;;;;20.90;11.55;;;;;;;;;;4889641;29;20066;-90
2021/12/27 06:27:43;;;;;;;21.50;13.05;;;;;;;;;;4890827;29;20276;-88
2021/12/27 06:30:11;;;;;;;20.25;12.30;;;;;;;;;;4881907;29;20028;-91
2021/12/27 06:32:37;;;;;;;18.67;11.27;;;;;;;;;;4888409;29;20033;-90
2021/12/27 06:35:04;;;;;;;21.10;12.50;;;;;;;;;;4879259;29;20380;-85
2021/12/27 06:37:29;;;;;;;21.23;12.18;;;;;;;;;;4904320;29;20544;-86
2021/12/27 06:39:55;;;;;;;23.75;12.77;;;;;;;;;;4880970;29;20033;-85
2021/12/27 06:42:20;;;;;;;21.92;12.50;;;;;;;;;;4882019;29;20108;-89
2021/12/27 06:44:46;;;;;;;20.40;11.50;;;;;;;;;;4880823;29;20108;-89
2021/12/27 06:47:11;;;;;;;20.73;12.10;;;;;;;;;;4878174;29;20048;-85
2021/12/27 06:49:37;;;;;;;22.88;12.35;;;;;;;;;;4880903;29;20025;-91
2021/12/27 06:52:03;;;;;;;22.92;13.07;;;;;;;;;;4882491;29;20114;-85
2021/12/27 06:54:29;;;;;;;21.17;12.32;;;;;;;;;;4882592;29;20033;-88
2021/12/27 06:56:54;;;;;;;21.13;12.10;;;;;;;;;;4878368;29;20610;-84
2021/12/27 06:59:20;;;;;;;18.77;11.68;;;;;;;;;;4877712;29;20096;-88
2021/12/27 07:01:45;;;;;;;19.48;11.45;;;;;;;;;;4880548;29;20505;-89
2021/12/27 07:04:10;;;;;;;17.98;11.05;;;;;;;;;;4877202;29;20029;-84
2021/12/27 07:06:36;;;;;;;21.25;11.43;;;;;;;;;;4877731;29;20049;-84
2021/12/27 07:09:04;;;;;;;21.45;12.80;;;;;;;;;;4867220;29;20044;-87
2021/12/27 07:11:30;;;;;;;18.98;11.68;;;;;;;;;;4879955;29;20116;-88
2021/12/27 07:13:55;;;;;;;18.88;11.30;;;;;;;;;;4870564;29;20119;-85
2021/12/27 07:16:20;;;;;;;20.30;11.85;;;;;;;;;;4869057;29;20116;-90
2021/12/27 07:18:46;;;;;;;18.40;11.35;;;;;;;;;;4869768;29;20033;-85
2021/12/27 07:21:11;;;;;;;18.65;11.32;;;;;;;;;;4869545;29;20038;-88
2021/12/27 07:23:36;;;;;;;21.50;11.65;;;;;;;;;;4868269;29;20032;-91
2021/12/27 07:26:02;;;;;;;20.15;11.90;;;;;;;;;;4866783;29;20025;-89
2021/12/27 07:28:27;;;;;;;19.75;11.68;;;;;;;;;;4866561;29;20036;-84
2021/12/27 07:30:53;;;;;;;19.85;11.60;;;;;;;;;;4869305;29;20051;-91
2021/12/27 07:33:19;;;;;;;19.63;11.27;;;;;;;;;;4886309;29;20489;-89
2021/12/27 07:35:44;;;;;;;19.55;11.63;;;;;;;;;;4868176;29;20136;-84
2021/12/27 07:38:10;;;;;;;22.23;11.20;;;;;;;;;;4869442;29;20029;-84
2021/12/27 07:40:35;;;;;;;19.70;12.02;;;;;;;;;;4871397;29;20056;-85
2021/12/27 07:43:01;;;;;;;19.38;11.75;;;;;;;;;;4864423;29;20052;-88
2021/12/27 07:45:27;;;;;;;19.67;11.77;;;;;;;;;;4870850;29;20028;-91
2021/12/27 07:47:53;;;;;;;22.40;12.18;;;;;;;;;;4872183;29;20024;-88
2021/12/27 07:50:19;;;;;;;22.08;11.70;;;;;;;;;;4887099;29;20441;-90
2021/12/27 07:52:45;;;;;;;20.77;11.77;;;;;;;;;;4868243;29;20037;-88
2021/12/27 07:55:10;;;;;;;19.80;12.02;;;;;;;;;;4866135;29;20148;-90
2021/12/27 07:57:36;;;;;;;23.10;11.68;;;;;;;;;;4865538;29;20052;-85
2021/12/27 08:00:04;;;;;;;21.77;11.82;;;;;;;;;;4867424;29;20036;-88
2021/12/27 08:02:30;;;;;;;21.33;11.77;;;;;;;;;;4868403;29;20037;-85
2021/12/27 08:04:55;;;;;;;22.05;11.85;;;;;;;;;;4863882;29;20040;-83
2021/12/27 08:07:21;;;;;;;24.77;11.60;;;;;;;;;;4861137;29;20045;-85
2021/12/27 08:09:46;;;;;;;21.85;11.48;;;;;;;;;;4880628;29;20041;-92
2021/12/27 08:12:14;;;;;;;20.42;11.77;;;;;;;;;;4873552;29;20061;-89
2021/12/27 08:14:40;;;;;;;22.75;12.65;;;;;;;;;;4872385;29;20032;-89
2021/12/27 08:17:05;;;;;;;19.13;11.07;;;;;;;;;;4878414;29;20036;-83
2021/12/27 08:19:33;;;;;;;23.10;11.57;;;;;;;;;;4877826;29;20040;-91
2021/12/27 08:21:58;;;;;;;21.85;10.75;;;;;;;;;;4874551;29;20036;-83
2021/12/27 08:24:23;;;;;;;20.98;11.15;;;;;;;;;;4875577;29;20033;-85
2021/12/27 08:26:49;;;;;;;20.15;11.18;;;;;;;;;;4876711;29;20500;-86
2021/12/27 08:29:14;;;;;;;21.40;11.65;;;;;;;;;;4873876;29;20069;-86
2021/12/27 08:31:40;;;;;;;17.80;10.18;;;;;;;;;;4873654;29;20033;-86
2021/12/27 08:34:05;;;;;;;18.95;10.15;;;;;;;;;;4875622;29;20033;-88
2021/12/27 08:36:30;;;;;;;18.38;10.43;;;;;;;;;;4876402;29;20043;-88
2021/12/27 08:38:56;;;;;;;18.67;10.50;;;;;;;;;;4872323;29;20117;-85
2021/12/27 08:41:27;;;;;;;19.55;10.85;;;;;;;;;;4872539;29;20033;-88
2021/12/27 08:43:55;;;;;;;18.23;10.52;;;;;;;;;;4874502;29;20366;-90
2021/12/27 08:46:20;;;;;;;18.02;10.02;;;;;;;;;;4876211;29;20037;-86
2021/12/27 08:48:45;;;;;;;18.02;11.23;;;;;;;;;;4873182;29;20037;-88
2021/12/27 08:51:11;;;;;;;17.85;10.35;;;;;;;;;;4874500;29;20025;-85
2021/12/27 08:53:37;;;;;;;16.92;10.55;;;;;;;;;;4869242;29;20036;-88
2021/12/27 08:56:03;;;;;;;19.75;10.70;;;;;;;;;;4874368;29;20039;-84
2021/12/27 08:58:28;;;;;;;19.20;11.00;;;;;;;;;;4870411;29;20029;-85
2021/12/27 09:00:53;;;;;;;16.40;9.85;;;;;;;;;;4875570;29;20032;-89
2021/12/27 09:03:19;;;;;;;20.55;11.15;;;;;;;;;;4873572;29;20607;-87
2021/12/27 09:05:44;;;;;;;19.35;11.02;;;;;;;;;;4877218;29;20026;-90
2021/12/27 09:08:10;;;;;;;18.02;10.70;;;;;;;;;;4870719;29;20778;-89
2021/12/27 09:10:35;;;;;;;20.67;11.40;;;;;;;;;;4872520;29;20032;-86
2021/12/27 09:13:02;;;;;;;17.75;10.57;;;;;;;;;;4872684;29;20128;-89
2021/12/27 09:15:29;;;;;;;17.05;10.30;;;;;;;;;;4888085;29;20044;-85
2021/12/27 09:17:54;;;;;;;19.05;10.95;;;;;;;;;;4870270;29;20037;-85
2021/12/27 09:20:21;;;;;;;19.63;11.23;;;;;;;;;;4871241;29;20029;-88
2021/12/27 09:22:47;;;;;;;18.80;11.27;;;;;;;;;;4877234;29;20037;-85
2021/12/27 09:25:15;;;;;;;20.55;12.02;;;;;;;;;;4872843;29;20041;-84
2021/12/27 09:27:44;;;;;;;21.63;11.88;;;;;;;;;;4874815;29;20097;-84
2021/12/27 09:30:10;;;;;;;18.60;10.88;;;;;;;;;;4871665;29;20064;-88
2021/12/27 09:32:36;;;;;;;23.05;12.15;;;;;;;;;;4871825;29;20037;-87
2021/12/27 09:35:02;;;;;;;21.35;12.50;;;;;;;;;;4882930;29;20470;-82
2021/12/27 09:37:27;;;;;;;21.08;12.10;;;;;;;;;;4872608;29;22066;-84
2021/12/27 09:39:55;;;;;;;19.80;12.05;;;;;;;;;;4871085;29;20037;-83
2021/12/27 09:42:22;;;;;;;20.15;11.35;;;;;;;;;;4871765;29;20075;-84
2021/12/27 09:44:48;;;;;;;18.73;11.95;;;;;;;;;;4870218;29;20400;-85
2021/12/27 09:47:14;;;;;;;19.88;11.38;;;;;;;;;;4873097;29;20025;-89
2021/12/27 09:49:40;;;;;;;20.17;11.38;;;;;;;;;;4878296;29;20061;-89
2021/12/27 09:52:08;;;;;;;19.48;11.10;;;;;;;;;;4868393;29;20088;-83
2021/12/27 09:54:33;;;;;;;17.95;10.68;;;;;;;;;;4874942;29;20043;-88
2021/12/27 09:56:59;;;;;;;18.98;10.88;;;;;;;;;;4875189;29;20033;-86
2021/12/27 09:59:26;;;;;;;19.23;11.68;;;;;;;;;;4866610;29;20033;-86
2021/12/27 10:01:52;;;;;;;19.05;11.10;;;;;;;;;;4869438;29;20032;-86
2021/12/27 10:04:19;;;;;;;19.70;12.10;;;;;;;;;;4873810;29;20025;-87
2021/12/27 10:06:44;;;;;;;17.92;11.10;;;;;;;;;;4871584;29;20092;-89
2021/12/27 10:09:10;;;;;;;20.20;11.23;;;;;;;;;;4862639;29;20037;-88
2021/12/27 10:11:39;;;;;;;17.42;11.20;;;;;;;;;;4870804;29;20036;-84
2021/12/27 10:14:13;;;;;;;20.10;12.05;;;;;;;;;;4863025;29;20438;-83
2021/12/27 10:16:45;;;;;;;19.50;11.60;;;;;;;;;;4861722;29;20089;-84
2021/12/27 10:19:13;;;;;;;20.65;12.25;;;;;;;;;;4863020;29;20037;-85
2021/12/27 10:21:41;;;;;;;21.52;12.25;;;;;;;;;;4859575;29;20033;-85
2021/12/27 10:24:20;;;;;;;19.75;12.02;;;;;;;;;;4860215;29;20568;-84
2021/12/27 10:26:49;;;;;;;21.52;12.20;;;;;;;;;;4860915;29;20454;-85
2021/12/27 10:29:39;;;;;;;17.98;12.10;;;;;;;;;;4857081;29;20033;-85
2021/12/27 10:32:21;;;;;;;;;;;;;;;;;;;;;
2021/12/27 10:35:10;;;;;;;15.15;10.98;;;;;;;;;;4840823;29;20056;-89
2021/12/27 10:37:39;;;;;;;18.63;10.90;;;;;;;;;;4842296;29;20547;-87
2021/12/27 10:40:13;;;;;;;20.27;12.15;;;;;;;;;;4844665;29;20546;-84
2021/12/27 10:42:46;;;;;;;19.80;12.27;;;;;;;;;;4822507;29;20041;-87
2021/12/27 10:45:26;;;;;;;;;;;;;;;;;;;;;
2021/12/27 10:49:11;;;;;;;17.73;11.93;;;;;;;;;;4755564;30;21742;-89
2021/12/27 10:55:44;;;;;;;18.25;11.75;;;;;;;;;;4751016;30;20050;-85
2021/12/27 10:58:53;;;;;;;;;;;;;;;;;;;;;
2021/12/27 11:02:26;;;;;;;;;;;;;;;;;;;;;
2021/12/27 11:05:25;;;;;;;;;;;;;;;;;;;;;
2021/12/27 11:11:17;;;;;;;18.15;11.10;;;;;;;;;;4876480;29;20543;-85
2021/12/27 11:16:46;;;;;;;15.88;10.90;;;;;;;;;;4882625;29;20055;-88
2021/12/27 11:19:14;;;;;;;17.17;10.48;;;;;;;;;;4858902;29;20282;-84
2021/12/27 11:21:48;;;;;;;17.17;10.20;;;;;;;;;;4865705;29;20045;-83
2021/12/27 11:24:19;;;;;;;15.27;9.70;;;;;;;;;;4847424;29;20049;-85
2021/12/27 11:26:47;;;;;;;16.08;10.20;;;;;;;;;;4842344;29;20117;-90
2021/12/27 11:29:47;;;;;;;15.38;10.00;;;;;;;;;;4843009;29;20045;-84
2021/12/27 11:32:19;;;;;;;14.55;9.68;;;;;;;;;;4854990;29;20029;-85
2021/12/27 11:35:18;;;;;;;16.60;9.98;;;;;;;;;;4842464;29;20064;-83
2021/12/27 11:38:02;;;;;;;;;;;;;;;;;;;;;
2021/12/27 11:40:50;;;;;;;16.27;9.80;;;;;;;;;;4860738;29;20053;-82
2021/12/27 11:43:24;;;;;;;13.55;9.20;;;;;;;;;;4845035;29;20033;-87
2021/12/27 11:46:20;;;;;;;12.65;8.63;;;;;;;;;;4841577;29;20040;-87
2021/12/27 11:52:49;;;;;;;14.13;8.40;;;;;;;;;;4872896;29;20359;-86
2021/12/27 11:55:22;;;;;;;13.85;8.90;;;;;;;;;;4871526;29;20066;-84
2021/12/27 11:58:50;;;;;;;12.95;8.98;;;;;;;;;;4860295;29;20037;-84
2021/12/27 12:01:22;;;;;;;13.05;8.55;;;;;;;;;;4857585;29;20049;-84
2021/12/27 12:04:00;;;;;;;14.15;9.02;;;;;;;;;;4870606;29;20520;-88
2021/12/27 12:06:53;;;;;;;15.15;9.50;;;;;;;;;;4854851;29;20136;-85
2021/12/27 12:09:25;;;;;;;16.33;10.00;;;;;;;;;;4847779;29;20056;-87
2021/12/27 12:15:29;;;;;;;14.63;9.52;;;;;;;;;;4815793;29;20117;-87
2021/12/27 12:17:54;;;;;;;17.52;9.70;;;;;;;;;;4799812;29;20140;-88
2021/12/27 12:23:30;;;;;;;16.88;9.32;;;;;;;;;;4803846;29;20078;-88
2021/12/27 12:26:00;;;;;;;15.32;9.77;;;;;;;;;;4813037;29;20806;-83
2021/12/27 12:28:28;;;;;;;15.55;9.82;;;;;;;;;;4806084;29;20096;-88
2021/12/27 12:30:57;;;;;;;14.10;9.90;;;;;;;;;;4800553;29;20460;-89
2021/12/27 12:33:29;;;;;;;16.25;10.60;;;;;;;;;;4812857;29;20053;-85
2021/12/27 12:36:01;;;;;;;16.63;10.40;;;;;;;;;;4798190;29;20506;-87
2021/12/27 12:39:02;;;;;;;14.98;9.57;;;;;;;;;;4797189;29;20475;-85
2021/12/27 12:48:03;;;;;;;12.98;9.15;;;;;;;;;;4763757;30;20580;-87
2021/12/27 12:50:30;;;;;;;17.70;10.80;;;;;;;;;;4754272;30;20071;-87
2021/12/27 12:53:13;;;;;;;;;;;;;;;;;;;;;
2021/12/27 12:56:00;;;;;;;;;;;;;;;;;;4786427;29;21205;-88
2021/12/27 13:01:32;;;;;;;17.52;9.70;;;;;;;;;;4816808;29;20509;-84
2021/12/27 13:04:06;;;;;;;14.52;9.65;;;;;;;;;;4835862;29;20093;-85
2021/12/27 13:07:02;;;;;;;14.55;9.25;;;;;;;;;;4888024;23;20080;-88
2021/12/27 13:10:07;;;;;;;13.10;8.63;;;;;;;;;;4846646;29;20039;-89
2021/12/27 13:16:05;;;;;;;14.40;9.02;;;;;;;;;;4827601;29;20071;-85
2021/12/27 13:18:35;;;;;;;13.32;9.48;;;;;;;;;;4778963;29;20571;-85
2021/12/27 13:21:11;;;;;;;14.32;9.55;;;;;;;;;;4767985;29;20035;-86
2021/12/27 13:24:05;;;;;;;13.68;9.15;;;;;;;;;;4799924;29;20072;-86
2021/12/27 13:27:07;;;;;;;17.08;9.32;;;;;;;;;;4786515;29;20035;-88
2021/12/27 13:29:35;;;;;;;13.77;9.50;;;;;;;;;;4788890;29;20050;-84
2021/12/27 13:32:06;;;;;;;14.88;9.55;;;;;;;;;;4788502;29;20038;-89
2021/12/27 13:35:18;;;;;;;;;;;;;;;;;;;;;
2021/12/27 13:41:11;;;;;;;12.70;8.68;;;;;;;;;;4801471;29;20470;-88
2021/12/27 13:44:19;;;;;;;14.02;8.85;;;;;;;;;;4800607;29;20062;-87
2021/12/27 13:47:51;;;;;;;;;;;;;;;;;;;;;
2021/12/27 13:50:44;;;;;;;12.30;7.65;;;;;;;;;;4804429;29;20687;-85
2021/12/27 13:53:41;;;;;;;13.73;8.60;;;;;;;;;;4721046;30;20060;-85
2021/12/27 13:56:40;;;;;;;10.82;7.32;;;;;;;;;;4743918;30;20102;-85
2021/12/27 13:59:41;;;;;;;12.10;7.45;;;;;;;;;;4711742;30;20822;-87
2021/12/27 14:24:14;;;;;;;12.95;7.53;;;;;;;;;;4857690;29;20134;-83
2021/12/27 14:26:49;;;;;;;12.13;7.40;;;;;;;;;;4854304;29;20538;-89
2021/12/27 14:29:46;;;;;;;12.45;7.95;;;;;;;;;;4858941;29;20042;-84
2021/12/27 14:36:19;;;;;;;13.63;7.53;;;;;;;;;;4857148;29;20053;-84
2021/12/27 14:38:47;;;;;;;12.77;7.30;;;;;;;;;;4782897;29;20102;-87
2021/12/27 14:41:18;;;;;;;13.18;7.85;;;;;;;;;;4787499;29;20063;-88
2021/12/27 14:43:47;;;;;;;11.43;8.38;;;;;;;;;;4788781;29;20058;-83
2021/12/27 14:46:20;;;;;;;13.02;8.07;;;;;;;;;;4779944;29;20035;-87
2021/12/27 14:48:48;;;;;;;12.73;7.78;;;;;;;;;;4776774;29;20134;-85
2021/12/27 14:51:19;;;;;;;15.20;9.02;;;;;;;;;;4785644;29;20055;-88
2021/12/27 14:53:56;;;;;;;11.93;8.30;;;;;;;;;;4785576;29;20044;-88
2021/12/27 14:59:50;;;;;;;13.32;8.32;;;;;;;;;;4770257;29;20048;-87
2021/12/27 15:02:51;;;;;;;14.20;8.93;;;;;;;;;;4761375;30;20056;-85
2021/12/27 15:05:26;;;;;;;16.33;10.30;;;;;;;;;;4774724;29;20034;-85
2021/12/27 15:07:52;;;;;;;15.20;9.55;;;;;;;;;;4783891;29;20042;-88
2021/12/27 15:11:22;;;;;;;;;;;;;;;;;;;;;
2021/12/27 15:14:23;;;;;;;16.38;8.57;;;;;;;;;;4804909;29;20134;-88
2021/12/27 15:16:58;;;;;;;12.63;8.48;;;;;;;;;;4772344;30;20071;-90
2021/12/27 15:19:23;;;;;;;19.58;9.00;;;;;;;;;;4776559;29;20114;-85
2021/12/27 15:26:07;;;;;;;;;;;;;;;;;;;;;
2021/12/27 15:29:06;;;;;;;;;;;;;;;;;;;;;
2021/12/27 15:31:56;;;;;;;12.77;7.85;;;;;;;;;;4729049;30;20048;-88
2021/12/27 15:35:27;;;;;;;12.25;8.00;;;;;;;;;;4767175;30;20353;-86
2021/12/27 15:38:00;;;;;;;12.20;8.23;;;;;;;;;;4774034;29;20071;-88
2021/12/27 15:40:25;;;;;;;14.00;8.48;;;;;;;;;;4764027;30;20052;-85
2021/12/27 15:42:57;;;;;;;12.40;8.73;;;;;;;;;;4797877;29;20046;-86
2021/12/27 15:45:26;;;;;;;14.35;8.70;;;;;;;;;;4796015;29;20395;-86
2021/12/27 15:48:31;;;;;;;12.98;8.80;;;;;;;;;;4797926;29;20095;-88
2021/12/27 15:50:59;;;;;;;13.05;8.27;;;;;;;;;;4816398;29;20041;-88
2021/12/27 15:53:32;;;;;;;13.68;8.52;;;;;;;;;;4809300;29;20506;-86
2021/12/27 15:56:00;;;;;;;12.77;8.55;;;;;;;;;;4833744;29;20030;-87
2021/12/27 15:58:26;;;;;;;12.30;8.32;;;;;;;;;;4837021;29;20408;-88
2021/12/27 16:01:02;;;;;;;11.70;7.95;;;;;;;;;;4840555;29;20053;-88
2021/12/27 16:03:31;;;;;;;11.90;8.30;;;;;;;;;;4831336;29;20041;-87
2021/12/27 16:06:00;;;;;;;12.40;8.90;;;;;;;;;;4835723;29;20124;-85